Saturday, July 21, 2018, 3:21 AM EDT
Back to Local

KFIG, Clearfield-lawrence Airport

Location: Clearfield, PA, United States Lat: 41.05
Local Time: 3:21 AM EDT ( 7:21 GMT) Lon: -78.417
Time Zone: US/Eastern Elev: 1515 ft

Show me the last for .
Show Decoded

2018-07-21 02:54 METAR KFIG 210654Z AUTO VRB03KT 10SM BKN045 OVC075 19/14 A3001 RMK AO2 SLP152
                 T01940144 =
2018-07-21 01:54 METAR KFIG 210554Z AUTO 12004KT 10SM FEW075 20/13 A3002 RMK AO2 SLP155 T02000133
                 10239 20200 58001 =
2018-07-21 00:54 METAR KFIG 210454Z AUTO VRB03KT 10SM CLR 21/13 A3003 RMK AO2 SLP157 T02110133
                 402830122 =
2018-07-20 23:54 METAR KFIG 210354Z AUTO 10SM CLR 21/14 A3003 RMK AO2 SLP157 T02110139 =
2018-07-20 22:54 METAR KFIG 210254Z AUTO VRB03KT 10SM CLR 22/14 A3002 RMK AO2 SLP156 T02220144
                 53000 =
2018-07-20 21:54 METAR KFIG 210154Z AUTO 09003KT 10SM CLR 22/15 A3001 RMK AO2 SLP153 T02170150 =
2018-07-20 20:54 METAR KFIG 210054Z AUTO VRB04KT 10SM CLR 23/15 A3002 RMK AO2 SLP155 T02280150 =
2018-07-20 19:54 METAR KFIG 202354Z AUTO VRB06KT 10SM CLR 24/14 A3002 RMK AO2 SLP158 T02390144
                 10283 20239 55000 =
2018-07-20 18:54 METAR KFIG 202254Z AUTO VRB05G15KT 10SM CLR 26/16 A3001 RMK AO2 SLP155 T02610156
                 =
2018-07-20 17:54 METAR KFIG 202154Z AUTO VRB06KT 10SM CLR 27/16 A3002 RMK AO2 SLP158 T02670156 =
2018-07-20 16:54 METAR KFIG 202054Z AUTO 17008G18KT 110V190 10SM CLR 27/16 A3002 RMK AO2 SLP158
                 T02720156 58017 =
2018-07-20 15:54 METAR KFIG 201954Z AUTO VRB06KT 10SM FEW047 27/16 A3004 RMK AO2 SLP165 T02670161
                 =
2018-07-20 14:54 METAR KFIG 201854Z AUTO VRB04G17KT 10SM FEW044 SCT070 27/16 A3006 RMK AO2 SLP172
                 T02670161 =
2018-07-20 13:54 METAR KFIG 201754Z AUTO 15007KT 120V210 10SM BKN041 BKN048 OVC060 26/17 A3008
                 RMK AO2 SLP177 T02610172 10272 20167 58010 =
2018-07-20 12:54 METAR KFIG 201654Z AUTO VRB04KT 10SM SCT045 27/17 A3009 RMK AO2 SLP181 T02720172
                 =
2018-07-20 11:54 METAR KFIG 201554Z AUTO VRB04KT 10SM FEW043 26/16 A3010 RMK AO2 SLP185 T02610156
                 =
2018-07-20 10:54 METAR KFIG 201454Z AUTO VRB05KT 10SM CLR 25/17 A3011 RMK AO2 SLP187 T02500167
                 58006 =
2018-07-20 09:54 METAR KFIG 201354Z AUTO 20003KT 10SM CLR 23/17 A3012 RMK AO2 SLP192 T02280167 =
2018-07-20 08:54 METAR KFIG 201254Z AUTO 02005KT 10SM CLR 19/15 A3013 RMK AO2 SLP195 T01890150 =
2018-07-20 07:54 METAR KFIG 201154Z AUTO 03004KT 10SM CLR 17/14 A3013 RMK AO2 SLP195 T01670144
                 10167 20122 52005 =
2018-07-20 06:54 METAR KFIG 201054Z AUTO 01006KT 10SM CLR 13/13 A3013 RMK AO2 SLP194 T01330128 =
2018-07-20 05:54 METAR KFIG 200954Z AUTO 36006KT 10SM CLR 12/12 A3011 RMK AO2 SLP191 T01220122 =
2018-07-20 04:54 METAR KFIG 200854Z AUTO 36007KT 9SM CLR 13/12 A3011 RMK AO2 SLP189 T01280122
                 50001 =
2018-07-20 03:54 METAR KFIG 200754Z AUTO 36007KT 10SM CLR 13/13 A3012 RMK AO2 SLP190 T01330128 =

Support USWX by starting your Amazon purchase here.